Time;durP1;ratioP1;P1;durP2;ratioP2;P2;SDS_P1;SDS_P2;PMS_P1;PMS_P2;Temp;Humidity;BMP_temperature;BMP_pressure;BME280_temperature;BME280_humidity;BME280_pressure;Samples;Min_cycle;Max_cycle;Signal;HPM_P1;HPM_P2
2022/11/25 00:00:16;;;;;;;15.15;2.97;;;;;;;;;;5040997;28;20050;-74
2022/11/25 00:02:43;;;;;;;16.83;3.10;;;;;;;;;;5033343;28;20045;-74
2022/11/25 00:05:10;;;;;;;17.95;3.30;;;;;;;;;;5029273;28;20161;-75
2022/11/25 00:07:38;;;;;;;12.70;2.20;;;;;;;;;;5042749;28;20050;-75
2022/11/25 00:10:06;;;;;;;18.42;3.35;;;;;;;;;;5043894;28;20060;-74
2022/11/25 00:12:33;;;;;;;25.27;3.60;;;;;;;;;;5045127;28;20053;-74
2022/11/25 00:15:01;;;;;;;18.05;3.10;;;;;;;;;;5040727;28;20831;-74
2022/11/25 00:17:28;;;;;;;21.02;3.30;;;;;;;;;;5042861;28;20050;-74
2022/11/25 00:19:55;;;;;;;18.88;3.28;;;;;;;;;;5032022;28;20475;-74
2022/11/25 00:22:22;;;;;;;18.48;3.03;;;;;;;;;;5030743;28;20213;-75
2022/11/25 00:24:49;;;;;;;19.52;3.63;;;;;;;;;;5042441;28;20053;-75
2022/11/25 00:27:17;;;;;;;23.38;3.80;;;;;;;;;;5039607;28;20046;-75
2022/11/25 00:29:44;;;;;;;24.45;3.63;;;;;;;;;;5035305;28;20060;-75
2022/11/25 00:32:12;;;;;;;16.85;3.70;;;;;;;;;;5040432;28;20052;-75
2022/11/25 00:34:39;;;;;;;25.35;3.35;;;;;;;;;;5038736;28;20503;-76
2022/11/25 00:37:06;;;;;;;14.50;3.00;;;;;;;;;;5040375;28;20153;-75
2022/11/25 00:39:34;;;;;;;19.45;3.25;;;;;;;;;;5044700;28;20095;-76
2022/11/25 00:44:47;;;;;;;23.00;3.20;;;;;;;;;;5041443;28;20054;-76
2022/11/25 00:47:16;;;;;;;25.17;4.47;;;;;;;;;;5040260;28;20046;-75
2022/11/25 00:49:44;;;;;;;24.50;3.83;;;;;;;;;;5039514;28;20053;-76
2022/11/25 00:52:19;;;;;;;18.48;3.35;;;;;;;;;;5042533;28;20052;-76
2022/11/25 00:54:47;;;;;;;30.63;3.53;;;;;;;;;;5043379;28;20050;-76
2022/11/25 00:57:15;;;;;;;25.05;3.67;;;;;;;;;;5041269;28;20061;-76
2022/11/25 00:59:44;;;;;;;24.20;3.33;;;;;;;;;;5038695;28;20049;-75
2022/11/25 01:02:12;;;;;;;34.65;3.70;;;;;;;;;;5039585;28;20050;-76
2022/11/25 01:04:40;;;;;;;34.35;3.30;;;;;;;;;;5042847;28;20053;-77
2022/11/25 01:07:11;;;;;;;28.27;3.40;;;;;;;;;;5038257;28;20053;-76
2022/11/25 01:09:39;;;;;;;21.33;3.45;;;;;;;;;;5039902;28;20079;-76
2022/11/25 01:12:06;;;;;;;31.85;3.45;;;;;;;;;;5041567;28;20071;-76
2022/11/25 01:14:34;;;;;;;24.20;3.67;;;;;;;;;;5038346;28;20045;-76
2022/11/25 01:17:02;;;;;;;24.00;3.72;;;;;;;;;;5039504;28;20133;-76
2022/11/25 01:19:30;;;;;;;21.65;3.33;;;;;;;;;;5044000;28;20049;-75
2022/11/25 01:21:57;;;;;;;21.48;3.45;;;;;;;;;;5045059;28;20058;-76
2022/11/25 01:24:25;;;;;;;22.20;3.75;;;;;;;;;;5042595;28;20057;-76
2022/11/25 01:26:53;;;;;;;22.67;3.40;;;;;;;;;;5042208;28;20076;-76
2022/11/25 01:29:20;;;;;;;16.42;3.33;;;;;;;;;;5035995;28;20063;-76
2022/11/25 01:31:48;;;;;;;21.70;5.00;;;;;;;;;;5042240;28;20049;-76
2022/11/25 01:34:17;;;;;;;24.10;4.22;;;;;;;;;;5037252;28;20546;-76
2022/11/25 01:36:44;;;;;;;30.67;5.15;;;;;;;;;;5035066;28;20081;-76
2022/11/25 01:39:16;;;;;;;17.92;3.25;;;;;;;;;;5043480;28;20072;-76
2022/11/25 01:41:45;;;;;;;29.00;3.83;;;;;;;;;;5038557;28;20045;-76
2022/11/25 01:44:15;;;;;;;21.52;3.53;;;;;;;;;;5041651;28;20049;-76
2022/11/25 01:46:51;;;;;;;27.85;4.05;;;;;;;;;;5036367;28;20061;-77
2022/11/25 01:49:21;;;;;;;13.68;2.70;;;;;;;;;;5039643;28;20056;-76
2022/11/25 01:51:51;;;;;;;21.23;3.22;;;;;;;;;;5043737;28;20565;-76
2022/11/25 01:54:22;;;;;;;18.45;3.05;;;;;;;;;;5039028;28;20050;-76
2022/11/25 01:56:55;;;;;;;31.27;4.05;;;;;;;;;;5043933;28;20847;-76
2022/11/25 01:59:23;;;;;;;29.65;3.47;;;;;;;;;;5040674;28;20156;-77
2022/11/25 02:01:51;;;;;;;16.45;3.13;;;;;;;;;;5038235;28;20107;-76
2022/11/25 02:04:18;;;;;;;19.40;2.92;;;;;;;;;;5044451;28;20472;-77
2022/11/25 02:06:49;;;;;;;21.85;3.42;;;;;;;;;;5046303;28;20121;-77
2022/11/25 02:09:18;;;;;;;19.02;3.13;;;;;;;;;;5042351;28;20061;-77
2022/11/25 02:11:45;;;;;;;31.80;4.30;;;;;;;;;;5043495;28;20049;-77
2022/11/25 02:14:14;;;;;;;26.25;3.28;;;;;;;;;;5045314;28;20148;-78
2022/11/25 02:16:41;;;;;;;22.67;3.70;;;;;;;;;;5045767;28;20050;-77
2022/11/25 02:19:17;;;;;;;26.35;3.92;;;;;;;;;;5042023;28;20056;-77
2022/11/25 02:21:47;;;;;;;25.30;3.70;;;;;;;;;;5035822;28;20957;-77
2022/11/25 02:24:34;;;;;;;20.42;3.50;;;;;;;;;;5039333;28;20057;-77
2022/11/25 02:27:01;;;;;;;28.58;3.42;;;;;;;;;;5045560;28;20111;-78
2022/11/25 02:29:29;;;;;;;18.88;3.05;;;;;;;;;;5041811;28;21142;-78
2022/11/25 02:31:57;;;;;;;37.78;3.47;;;;;;;;;;5039216;28;20084;-78
2022/11/25 02:34:24;;;;;;;24.33;3.63;;;;;;;;;;5041779;28;20165;-78
2022/11/25 02:36:52;;;;;;;15.30;3.40;;;;;;;;;;5043909;28;20061;-79
2022/11/25 02:39:20;;;;;;;34.22;3.67;;;;;;;;;;5040903;28;20512;-78
2022/11/25 02:41:50;;;;;;;26.48;3.85;;;;;;;;;;5044571;28;20081;-78
2022/11/25 02:44:17;;;;;;;20.88;3.45;;;;;;;;;;5039511;28;20057;-78
2022/11/25 02:46:45;;;;;;;24.13;3.72;;;;;;;;;;5041773;28;20076;-78
2022/11/25 02:49:13;;;;;;;16.23;3.25;;;;;;;;;;5046568;28;20050;-78
2022/11/25 02:51:43;;;;;;;25.83;3.60;;;;;;;;;;5037845;28;20049;-78
2022/11/25 02:54:12;;;;;;;26.67;3.40;;;;;;;;;;5034210;28;20049;-78
2022/11/25 02:56:39;;;;;;;28.58;4.28;;;;;;;;;;5042327;28;20132;-78
2022/11/25 02:59:07;;;;;;;29.88;4.20;;;;;;;;;;5035941;28;20056;-78
2022/11/25 03:01:37;;;;;;;31.02;3.63;;;;;;;;;;5038759;28;20056;-78
2022/11/25 03:04:05;;;;;;;23.08;3.97;;;;;;;;;;5038819;28;20124;-78
2022/11/25 03:06:33;;;;;;;26.52;3.58;;;;;;;;;;5040391;28;20140;-78
2022/11/25 03:09:00;;;;;;;24.48;3.70;;;;;;;;;;5045231;28;20049;-78
2022/11/25 03:14:14;;;;;;;24.83;3.78;;;;;;;;;;5043657;28;20096;-78
2022/11/25 03:16:41;;;;;;;28.70;3.75;;;;;;;;;;5043558;28;20108;-78
2022/11/25 03:19:09;;;;;;;25.48;3.75;;;;;;;;;;5041918;28;20176;-78
2022/11/25 03:21:36;;;;;;;31.48;3.50;;;;;;;;;;5062352;28;20056;-78
2022/11/25 03:24:03;;;;;;;35.42;3.95;;;;;;;;;;5043927;28;20045;-78
2022/11/25 03:26:31;;;;;;;29.23;3.58;;;;;;;;;;5038433;28;20056;-79
2022/11/25 03:28:58;;;;;;;23.48;3.55;;;;;;;;;;5039576;28;20057;-78
2022/11/25 03:31:25;;;;;;;25.58;3.90;;;;;;;;;;5040896;28;20581;-78
2022/11/25 03:33:54;;;;;;;17.05;3.45;;;;;;;;;;5043339;28;20642;-78
2022/11/25 03:36:22;;;;;;;18.60;2.90;;;;;;;;;;5043558;28;20050;-78
2022/11/25 03:38:49;;;;;;;26.48;3.70;;;;;;;;;;5048373;28;20131;-78
2022/11/25 03:41:16;;;;;;;18.35;3.20;;;;;;;;;;5052100;28;20723;-78
2022/11/25 03:43:44;;;;;;;23.95;3.17;;;;;;;;;;5042335;28;20053;-78
2022/11/25 03:46:12;;;;;;;15.32;2.80;;;;;;;;;;5040166;28;20899;-78
2022/11/25 03:48:39;;;;;;;25.60;3.15;;;;;;;;;;5043790;28;21056;-78
2022/11/25 03:51:07;;;;;;;31.80;3.60;;;;;;;;;;5041521;28;20045;-78
2022/11/25 03:53:36;;;;;;;23.73;2.75;;;;;;;;;;5041599;28;20112;-78
2022/11/25 03:56:03;;;;;;;18.98;2.90;;;;;;;;;;5044732;28;20115;-78
2022/11/25 03:58:31;;;;;;;24.58;2.85;;;;;;;;;;5035895;28;20050;-78
2022/11/25 04:01:01;;;;;;;18.58;2.90;;;;;;;;;;5037039;28;20050;-77
2022/11/25 04:03:29;;;;;;;23.48;3.15;;;;;;;;;;5048668;28;20153;-78
2022/11/25 04:05:56;;;;;;;19.80;3.05;;;;;;;;;;5040359;28;20507;-77
2022/11/25 04:08:24;;;;;;;17.20;2.70;;;;;;;;;;5046646;28;20088;-77
2022/11/25 04:10:52;;;;;;;16.70;2.90;;;;;;;;;;5047015;28;20109;-78
2022/11/25 04:13:19;;;;;;;23.40;3.38;;;;;;;;;;5046334;28;20058;-78
2022/11/25 04:15:47;;;;;;;12.85;2.60;;;;;;;;;;5055274;28;20046;-77
2022/11/25 04:18:16;;;;;;;13.57;2.28;;;;;;;;;;5045773;28;20140;-77
2022/11/25 04:20:44;;;;;;;14.93;2.50;;;;;;;;;;5045321;28;20056;-78
2022/11/25 04:23:13;;;;;;;16.98;2.58;;;;;;;;;;5044273;28;20050;-77
2022/11/25 04:25:41;;;;;;;23.35;2.50;;;;;;;;;;5032791;28;20046;-78
2022/11/25 04:28:11;;;;;;;14.05;2.25;;;;;;;;;;5044298;28;20073;-77
2022/11/25 04:30:42;;;;;;;13.98;2.42;;;;;;;;;;5037617;28;20054;-77
2022/11/25 04:33:09;;;;;;;16.70;2.70;;;;;;;;;;5037979;28;20049;-78
2022/11/25 04:35:36;;;;;;;16.65;2.38;;;;;;;;;;5040262;28;20050;-78
2022/11/25 04:38:03;;;;;;;10.27;2.15;;;;;;;;;;5042570;28;20053;-78
2022/11/25 04:40:31;;;;;;;7.72;1.83;;;;;;;;;;5036343;28;20050;-78
2022/11/25 04:42:58;;;;;;;19.77;2.13;;;;;;;;;;5044382;28;20137;-77
2022/11/25 04:45:33;;;;;;;11.65;2.05;;;;;;;;;;5038947;28;20408;-78
2022/11/25 04:48:21;;;;;;;9.60;1.65;;;;;;;;;;5033124;28;20050;-78
2022/11/25 04:50:48;;;;;;;8.38;1.73;;;;;;;;;;5041867;28;20053;-78
2022/11/25 04:53:15;;;;;;;11.88;1.90;;;;;;;;;;5041690;28;20053;-78
2022/11/25 04:55:43;;;;;;;13.45;1.77;;;;;;;;;;5046822;28;20054;-78
2022/11/25 04:58:10;;;;;;;5.68;1.50;;;;;;;;;;5034404;28;20054;-78
2022/11/25 05:00:38;;;;;;;12.45;1.70;;;;;;;;;;5042110;28;20061;-77
2022/11/25 05:03:06;;;;;;;7.22;1.40;;;;;;;;;;5040319;28;20500;-78
2022/11/25 05:05:33;;;;;;;8.65;1.90;;;;;;;;;;5036464;28;20050;-78
2022/11/25 05:08:01;;;;;;;11.65;1.80;;;;;;;;;;5041226;28;20042;-78
2022/11/25 05:10:28;;;;;;;8.93;1.20;;;;;;;;;;5050932;28;20064;-77
2022/11/25 05:12:55;;;;;;;10.57;1.45;;;;;;;;;;5043754;28;20046;-77
2022/11/25 05:15:23;;;;;;;4.85;1.27;;;;;;;;;;5045463;28;20057;-77
2022/11/25 05:17:51;;;;;;;8.63;1.45;;;;;;;;;;5035568;28;20061;-77
2022/11/25 05:20:18;;;;;;;4.13;1.40;;;;;;;;;;5037885;28;20069;-77
2022/11/25 05:22:46;;;;;;;5.60;1.30;;;;;;;;;;5044947;28;20140;-77
2022/11/25 05:25:15;;;;;;;8.75;1.60;;;;;;;;;;5038591;28;20083;-78
2022/11/25 05:27:43;;;;;;;13.05;1.63;;;;;;;;;;5045357;28;20081;-77
2022/11/25 05:30:10;;;;;;;4.85;1.48;;;;;;;;;;5037852;28;20053;-78
2022/11/25 05:32:39;;;;;;;8.38;1.60;;;;;;;;;;5046546;28;20065;-77
2022/11/25 05:35:06;;;;;;;9.88;1.67;;;;;;;;;;5034873;28;20054;-77
2022/11/25 05:37:33;;;;;;;9.45;1.40;;;;;;;;;;5043274;28;20928;-77
2022/11/25 05:40:03;;;;;;;9.20;1.52;;;;;;;;;;5043679;28;20062;-77
2022/11/25 05:42:30;;;;;;;9.23;1.75;;;;;;;;;;5042294;28;20055;-77
2022/11/25 05:44:58;;;;;;;10.15;1.63;;;;;;;;;;5043861;28;20057;-77
2022/11/25 05:47:25;;;;;;;10.90;1.65;;;;;;;;;;5040869;28;20046;-77
2022/11/25 05:49:52;;;;;;;13.02;1.88;;;;;;;;;;5044429;28;20050;-77
2022/11/25 05:52:19;;;;;;;9.55;1.92;;;;;;;;;;5045193;28;20048;-78
2022/11/25 05:54:47;;;;;;;10.93;1.88;;;;;;;;;;5037988;28;20029;-77
2022/11/25 05:57:21;;;;;;;13.40;1.88;;;;;;;;;;5040997;28;20857;-77
2022/11/25 05:59:49;;;;;;;11.18;1.58;;;;;;;;;;5056234;28;20045;-78
2022/11/25 06:02:16;;;;;;;7.53;1.80;;;;;;;;;;5046560;28;20136;-77
2022/11/25 06:04:45;;;;;;;19.10;1.73;;;;;;;;;;5042721;28;20137;-77
2022/11/25 06:07:12;;;;;;;16.95;1.95;;;;;;;;;;5040501;28;20052;-78
2022/11/25 06:09:39;;;;;;;20.30;2.55;;;;;;;;;;5045483;28;20885;-78
2022/11/25 06:12:07;;;;;;;12.85;2.40;;;;;;;;;;5041147;28;20053;-77
2022/11/25 06:14:36;;;;;;;12.50;2.30;;;;;;;;;;5037740;28;20105;-77
2022/11/25 06:17:04;;;;;;;11.07;2.42;;;;;;;;;;5045939;28;20057;-78
2022/11/25 06:19:31;;;;;;;11.85;2.47;;;;;;;;;;5032488;28;20658;-77
2022/11/25 06:21:59;;;;;;;18.85;2.33;;;;;;;;;;5044716;28;20077;-78
2022/11/25 06:24:26;;;;;;;9.63;2.13;;;;;;;;;;5034762;28;20097;-77
2022/11/25 06:26:54;;;;;;;10.32;2.30;;;;;;;;;;5041292;28;20902;-78
2022/11/25 06:29:21;;;;;;;15.82;2.30;;;;;;;;;;5041529;28;20049;-78
2022/11/25 06:31:49;;;;;;;11.80;2.22;;;;;;;;;;5042914;28;20515;-77
2022/11/25 06:34:16;;;;;;;16.70;2.60;;;;;;;;;;5043723;28;20789;-77
2022/11/25 06:36:44;;;;;;;12.15;2.17;;;;;;;;;;5041442;28;20052;-77
2022/11/25 06:39:11;;;;;;;14.52;2.70;;;;;;;;;;5049884;28;20089;-77
2022/11/25 06:41:39;;;;;;;15.32;2.85;;;;;;;;;;5043101;28;20056;-77
2022/11/25 06:44:06;;;;;;;13.85;2.65;;;;;;;;;;5039337;28;20056;-78
2022/11/25 06:46:33;;;;;;;16.05;2.50;;;;;;;;;;5036511;28;20042;-77
2022/11/25 06:49:00;;;;;;;17.02;2.45;;;;;;;;;;5040571;28;20061;-77
2022/11/25 06:51:28;;;;;;;18.55;2.55;;;;;;;;;;5042098;28;20049;-77
2022/11/25 06:53:55;;;;;;;13.55;2.90;;;;;;;;;;5042655;28;20148;-77
2022/11/25 06:56:27;;;;;;;7.22;2.63;;;;;;;;;;5038373;28;20156;-78
2022/11/25 06:58:55;;;;;;;18.00;3.40;;;;;;;;;;5043028;28;20058;-77
2022/11/25 07:01:23;;;;;;;10.20;2.85;;;;;;;;;;5037640;28;20046;-77
2022/11/25 07:03:52;;;;;;;9.48;2.92;;;;;;;;;;5034973;28;20072;-78
2022/11/25 07:06:19;;;;;;;10.43;3.00;;;;;;;;;;5042982;28;20054;-77
2022/11/25 07:08:48;;;;;;;23.20;3.17;;;;;;;;;;5043833;28;20073;-77
2022/11/25 07:11:21;;;;;;;18.23;3.53;;;;;;;;;;5039874;28;20061;-78
2022/11/25 07:13:52;;;;;;;19.30;3.43;;;;;;;;;;5042619;28;20066;-77
2022/11/25 07:16:19;;;;;;;20.35;3.28;;;;;;;;;;5038421;28;20281;-78
2022/11/25 07:18:46;;;;;;;14.52;2.92;;;;;;;;;;5041852;28;20057;-77
2022/11/25 07:21:15;;;;;;;25.33;3.78;;;;;;;;;;5041175;28;20054;-77
2022/11/25 07:23:43;;;;;;;16.95;3.42;;;;;;;;;;5043308;28;20284;-78
2022/11/25 07:26:15;;;;;;;13.50;3.60;;;;;;;;;;5052281;28;20136;-77
2022/11/25 07:28:43;;;;;;;23.10;3.88;;;;;;;;;;5039816;28;20138;-78
2022/11/25 07:31:13;;;;;;;21.55;4.00;;;;;;;;;;5061317;28;20046;-78
2022/11/25 07:33:53;;;;;;;19.52;3.78;;;;;;;;;;5054378;28;21726;-77
2022/11/25 07:36:21;;;;;;;15.68;3.67;;;;;;;;;;5053178;28;20056;-77
2022/11/25 07:38:49;;;;;;;19.92;3.85;;;;;;;;;;5063397;28;20100;-76
2022/11/25 07:41:18;;;;;;;12.65;3.40;;;;;;;;;;5053344;28;20076;-76
2022/11/25 07:43:47;;;;;;;15.02;3.38;;;;;;;;;;5045772;28;20054;-77
2022/11/25 07:46:22;;;;;;;14.98;3.72;;;;;;;;;;5039179;28;20141;-77
2022/11/25 07:48:54;;;;;;;24.25;3.85;;;;;;;;;;5050179;28;20058;-78
2022/11/25 07:51:24;;;;;;;17.02;3.35;;;;;;;;;;5044647;28;20049;-78
2022/11/25 07:53:52;;;;;;;17.17;3.65;;;;;;;;;;5042865;28;20054;-78
2022/11/25 07:56:20;;;;;;;18.15;4.15;;;;;;;;;;5042628;28;20049;-78
2022/11/25 07:58:48;;;;;;;15.45;4.00;;;;;;;;;;5048752;28;20041;-79
2022/11/25 08:01:17;;;;;;;22.25;4.30;;;;;;;;;;5045929;28;20049;-78
2022/11/25 08:03:46;;;;;;;26.27;4.10;;;;;;;;;;5048285;28;20038;-78
2022/11/25 08:06:15;;;;;;;19.17;4.72;;;;;;;;;;5043874;28;20049;-78
2022/11/25 08:08:43;;;;;;;16.95;4.25;;;;;;;;;;5044355;28;20057;-77
2022/11/25 08:11:12;;;;;;;23.27;4.78;;;;;;;;;;5048410;28;20099;-78
2022/11/25 08:13:42;;;;;;;18.92;4.55;;;;;;;;;;5048919;28;20119;-78
2022/11/25 08:16:11;;;;;;;16.15;4.28;;;;;;;;;;5042803;28;20138;-78
2022/11/25 08:18:39;;;;;;;20.73;4.82;;;;;;;;;;5040196;28;21461;-77
2022/11/25 08:21:08;;;;;;;14.73;5.05;;;;;;;;;;5044307;28;20052;-78
2022/11/25 08:23:36;;;;;;;29.80;5.22;;;;;;;;;;5041106;28;20055;-77
2022/11/25 08:26:11;;;;;;;15.15;4.68;;;;;;;;;;5056550;28;20049;-78
2022/11/25 08:28:40;;;;;;;20.67;4.63;;;;;;;;;;5037517;28;20116;-78
2022/11/25 08:31:09;;;;;;;24.15;5.30;;;;;;;;;;5039820;28;20538;-77
2022/11/25 08:33:36;;;;;;;24.80;5.10;;;;;;;;;;5044373;28;20050;-78
2022/11/25 08:36:04;;;;;;;22.30;5.30;;;;;;;;;;5048962;28;20077;-78
2022/11/25 08:38:31;;;;;;;17.55;4.93;;;;;;;;;;5048638;28;20057;-78
2022/11/25 08:41:01;;;;;;;19.95;4.97;;;;;;;;;;5045511;28;20091;-78
2022/11/25 08:43:34;;;;;;;22.48;5.50;;;;;;;;;;5043487;28;20208;-78
2022/11/25 08:46:07;;;;;;;16.35;4.80;;;;;;;;;;5046926;28;20053;-78
2022/11/25 08:48:36;;;;;;;17.83;5.25;;;;;;;;;;5057261;28;20058;-77
2022/11/25 08:51:07;;;;;;;17.08;4.65;;;;;;;;;;5044996;28;20060;-77
2022/11/25 08:53:40;;;;;;;18.05;4.93;;;;;;;;;;5041681;28;20056;-78
2022/11/25 08:56:11;;;;;;;14.43;5.32;;;;;;;;;;5044837;28;20058;-78
2022/11/25 08:58:38;;;;;;;22.17;4.80;;;;;;;;;;5050848;28;20140;-78
2022/11/25 09:01:06;;;;;;;19.30;4.32;;;;;;;;;;5046028;28;20057;-78
2022/11/25 09:03:35;;;;;;;18.33;5.30;;;;;;;;;;5041641;28;20053;-78
2022/11/25 09:06:03;;;;;;;16.50;4.70;;;;;;;;;;5062076;28;21325;-78
2022/11/25 09:08:31;;;;;;;25.83;4.53;;;;;;;;;;5046800;28;20049;-78
2022/11/25 09:10:59;;;;;;;19.92;4.78;;;;;;;;;;5043783;28;21673;-78
2022/11/25 09:13:27;;;;;;;17.65;4.43;;;;;;;;;;5041313;28;20050;-78
2022/11/25 09:15:55;;;;;;;14.05;3.78;;;;;;;;;;5037472;28;20119;-78
2022/11/25 09:18:28;;;;;;;12.57;3.80;;;;;;;;;;5039697;28;20082;-78
2022/11/25 09:20:56;;;;;;;13.63;4.22;;;;;;;;;;5044907;28;20065;-78
2022/11/25 09:23:25;;;;;;;14.93;4.15;;;;;;;;;;5038762;28;20058;-77
2022/11/25 09:25:54;;;;;;;19.73;5.75;;;;;;;;;;5047824;28;20886;-78
2022/11/25 09:28:22;;;;;;;14.30;5.15;;;;;;;;;;5041021;28;20061;-78
2022/11/25 09:30:49;;;;;;;26.65;5.93;;;;;;;;;;5044667;28;20065;-78
2022/11/25 09:33:18;;;;;;;16.92;4.80;;;;;;;;;;5042856;28;20074;-78
2022/11/25 09:35:47;;;;;;;10.63;3.88;;;;;;;;;;5044247;28;20054;-78
2022/11/25 09:38:14;;;;;;;15.27;4.22;;;;;;;;;;5039950;28;20046;-78
2022/11/25 09:40:49;;;;;;;12.20;3.45;;;;;;;;;;5042111;28;20053;-79
2022/11/25 09:46:41;;;;;;;15.60;3.63;;;;;;;;;;5005446;28;20051;-78
2022/11/25 09:49:12;;;;;;;18.63;4.05;;;;;;;;;;5005724;28;20141;-78
2022/11/25 09:51:58;;;;;;;15.63;3.90;;;;;;;;;;5003777;28;20097;-78
2022/11/25 09:54:51;;;;;;;15.02;4.25;;;;;;;;;;5006986;28;20142;-78
2022/11/25 09:57:19;;;;;;;13.95;3.10;;;;;;;;;;4995337;28;20145;-78
2022/11/25 10:00:05;;;;;;;12.68;2.80;;;;;;;;;;5008847;28;20050;-78
2022/11/25 10:02:50;;;;;;;14.07;3.75;;;;;;;;;;5002794;28;20046;-77
2022/11/25 10:05:23;;;;;;;9.98;2.95;;;;;;;;;;5004053;28;20059;-78
2022/11/25 10:07:55;;;;;;;14.02;3.30;;;;;;;;;;5004940;28;20051;-78
2022/11/25 10:10:25;;;;;;;10.32;3.15;;;;;;;;;;5013118;28;20109;-78
2022/11/25 10:12:54;;;;;;;9.73;3.33;;;;;;;;;;5006440;28;20842;-78
2022/11/25 10:15:24;;;;;;;11.40;3.30;;;;;;;;;;5005802;28;20058;-78
2022/11/25 10:17:53;;;;;;;13.60;3.20;;;;;;;;;;5003359;28;20124;-78
2022/11/25 10:20:26;;;;;;;11.00;3.15;;;;;;;;;;4987735;28;20109;-78
2022/11/25 10:23:22;;;;;;;11.57;3.25;;;;;;;;;;5037678;28;20097;-78
2022/11/25 10:26:00;;;;;;;13.43;2.97;;;;;;;;;;5044811;28;20495;-78
2022/11/25 10:28:35;;;;;;;9.00;3.03;;;;;;;;;;5028000;28;20109;-78
2022/11/25 10:31:05;;;;;;;9.63;3.00;;;;;;;;;;5042396;28;20060;-78
2022/11/25 10:33:43;;;;;;;9.57;3.78;;;;;;;;;;5038959;28;20855;-78
2022/11/25 10:36:25;;;;;;;15.25;3.63;;;;;;;;;;5043308;28;20062;-78
2022/11/25 10:39:02;;;;;;;16.90;3.17;;;;;;;;;;5043251;28;20064;-78
2022/11/25 10:41:32;;;;;;;11.85;3.38;;;;;;;;;;5042222;28;20058;-78
2022/11/25 10:44:00;;;;;;;15.50;3.25;;;;;;;;;;5058310;28;20061;-78
2022/11/25 10:46:52;;;;;;;11.02;3.20;;;;;;;;;;5048801;28;20092;-78
2022/11/25 10:49:59;;;;;;;10.40;3.38;;;;;;;;;;5041673;28;20083;-79
2022/11/25 10:52:29;;;;;;;13.52;3.90;;;;;;;;;;5049700;28;20057;-78
2022/11/25 10:54:58;;;;;;;13.18;3.35;;;;;;;;;;5046275;28;20049;-77
2022/11/25 10:57:28;;;;;;;10.07;3.50;;;;;;;;;;5044448;28;20052;-78
2022/11/25 10:59:57;;;;;;;15.45;3.72;;;;;;;;;;5028938;28;20088;-77
2022/11/25 11:02:34;;;;;;;13.52;3.78;;;;;;;;;;5046283;28;20049;-77
2022/11/25 11:05:25;;;;;;;16.60;6.07;;;;;;;;;;5044829;28;20045;-77
2022/11/25 11:08:16;;;;;;;12.20;3.42;;;;;;;;;;5027340;28;20050;-78
2022/11/25 11:10:44;;;;;;;11.80;3.65;;;;;;;;;;5052714;28;20050;-77
2022/11/25 11:13:17;;;;;;;9.93;3.72;;;;;;;;;;5045805;28;20055;-77
2022/11/25 11:15:46;;;;;;;8.43;3.45;;;;;;;;;;5043271;28;20053;-78
2022/11/25 11:18:20;;;;;;;10.00;3.47;;;;;;;;;;5042585;28;20057;-76
2022/11/25 11:20:50;;;;;;;12.45;3.10;;;;;;;;;;5043491;28;20057;-77
2022/11/25 11:23:20;;;;;;;10.38;3.15;;;;;;;;;;5040722;28;20053;-76
2022/11/25 11:25:55;;;;;;;17.92;3.95;;;;;;;;;;5042956;28;20053;-76
2022/11/25 11:28:33;;;;;;;14.10;3.92;;;;;;;;;;5038684;28;20050;-76
2022/11/25 11:31:09;;;;;;;11.93;3.50;;;;;;;;;;5053069;28;20149;-76
2022/11/25 11:33:42;;;;;;;15.98;3.90;;;;;;;;;;5039870;28;20075;-76
2022/11/25 11:36:20;;;;;;;8.90;2.80;;;;;;;;;;5041386;28;20053;-77
2022/11/25 11:38:52;;;;;;;17.13;2.95;;;;;;;;;;5039652;28;20057;-77
2022/11/25 11:41:32;;;;;;;15.80;4.07;;;;;;;;;;5045857;28;20575;-76
2022/11/25 11:44:12;;;;;;;12.57;3.03;;;;;;;;;;5046321;28;20049;-76
2022/11/25 11:46:40;;;;;;;16.67;3.53;;;;;;;;;;5039793;28;20046;-76
2022/11/25 11:49:13;;;;;;;15.95;3.10;;;;;;;;;;5045785;28;20046;-76
2022/11/25 11:51:49;;;;;;;12.65;3.00;;;;;;;;;;5040286;28;20052;-77
2022/11/25 11:54:19;;;;;;;12.02;2.45;;;;;;;;;;5037076;28;20056;-76
2022/11/25 11:56:56;;;;;;;14.55;3.38;;;;;;;;;;5039258;28;20085;-76
2022/11/25 11:59:27;;;;;;;13.90;3.95;;;;;;;;;;5042133;28;20148;-76
2022/11/25 12:01:55;;;;;;;11.57;2.95;;;;;;;;;;5034551;28;20045;-76
2022/11/25 12:04:27;;;;;;;11.85;3.53;;;;;;;;;;5039566;28;20054;-76
2022/11/25 12:06:57;;;;;;;8.85;2.42;;;;;;;;;;5037743;28;20064;-76
2022/11/25 12:09:27;;;;;;;13.02;3.20;;;;;;;;;;5041377;28;20048;-76
2022/11/25 12:11:58;;;;;;;14.77;2.65;;;;;;;;;;5038852;28;20053;-77
2022/11/25 12:14:25;;;;;;;11.32;2.58;;;;;;;;;;5039484;28;20518;-76
2022/11/25 12:16:55;;;;;;;12.23;2.55;;;;;;;;;;5039398;28;20107;-77
2022/11/25 12:19:27;;;;;;;10.90;2.70;;;;;;;;;;5041907;28;20060;-76
2022/11/25 12:21:55;;;;;;;12.82;2.60;;;;;;;;;;5043248;28;20054;-76
2022/11/25 12:24:29;;;;;;;14.73;2.40;;;;;;;;;;5035139;28;20144;-76
2022/11/25 12:27:05;;;;;;;12.25;2.30;;;;;;;;;;5042360;28;20141;-78
2022/11/25 12:29:36;;;;;;;19.23;3.42;;;;;;;;;;5040937;28;20932;-77
2022/11/25 12:32:22;;;;;;;12.98;2.05;;;;;;;;;;5037395;28;20061;-76
2022/11/25 12:34:54;;;;;;;13.05;2.10;;;;;;;;;;5038144;28;20045;-76
2022/11/25 12:37:28;;;;;;;16.65;2.95;;;;;;;;;;5045286;28;20054;-76
2022/11/25 12:40:02;;;;;;;11.73;2.40;;;;;;;;;;5038550;28;20175;-76
2022/11/25 12:42:32;;;;;;;14.50;2.10;;;;;;;;;;5037148;28;20579;-76
2022/11/25 12:45:06;;;;;;;20.25;2.67;;;;;;;;;;5037919;28;20053;-76
2022/11/25 12:47:35;;;;;;;12.73;2.40;;;;;;;;;;5036741;28;20045;-76
2022/11/25 12:50:03;;;;;;;15.30;2.60;;;;;;;;;;5038680;28;20046;-76
2022/11/25 12:52:37;;;;;;;8.52;2.25;;;;;;;;;;5044146;28;20057;-76
2022/11/25 12:55:12;;;;;;;9.80;2.58;;;;;;;;;;5043290;28;20054;-76
2022/11/25 12:57:41;;;;;;;;;;;;;;;;;;5043664;28;20061;-76
2022/11/25 13:00:24;;;;;;;9.05;2.17;;;;;;;;;;5045522;28;45118;-76
2022/11/25 13:03:20;;;;;;;10.05;2.10;;;;;;;;;;5042097;28;20069;-76
2022/11/25 13:06:06;;;;;;;9.52;2.30;;;;;;;;;;5046298;28;20049;-76
2022/11/25 13:08:55;;;;;;;13.85;1.90;;;;;;;;;;5041255;28;20055;-76
2022/11/25 13:11:28;;;;;;;12.25;1.95;;;;;;;;;;5034860;28;20855;-77
2022/11/25 13:14:05;;;;;;;11.02;1.95;;;;;;;;;;5043906;28;20048;-76
2022/11/25 13:16:33;;;;;;;12.38;1.90;;;;;;;;;;5037633;28;20049;-76
2022/11/25 13:19:11;;;;;;;12.05;2.15;;;;;;;;;;5034143;28;20050;-76
2022/11/25 13:21:58;;;;;;;9.50;2.03;;;;;;;;;;5040285;28;20057;-76
2022/11/25 13:24:39;;;;;;;11.77;2.30;;;;;;;;;;5043827;28;20066;-75
2022/11/25 13:27:25;;;;;;;12.10;2.10;;;;;;;;;;5040531;28;20769;-76
2022/11/25 13:29:53;;;;;;;13.82;2.28;;;;;;;;;;5042307;28;20060;-75
2022/11/25 13:32:26;;;;;;;10.20;2.17;;;;;;;;;;5033204;28;20045;-75
2022/11/25 13:35:11;;;;;;;13.98;2.63;;;;;;;;;;5034903;28;20133;-75
2022/11/25 13:37:40;;;;;;;12.95;2.60;;;;;;;;;;5039289;28;20060;-76
2022/11/25 13:40:24;;;;;;;16.88;2.67;;;;;;;;;;5041984;28;20053;-75
2022/11/25 13:42:52;;;;;;;11.45;2.03;;;;;;;;;;5044698;28;20057;-75
2022/11/25 13:45:42;;;;;;;8.70;1.65;;;;;;;;;;5044224;28;20056;-75
2022/11/25 13:48:17;;;;;;;8.20;1.70;;;;;;;;;;5027993;28;20098;-76
2022/11/25 13:50:45;;;;;;;10.25;2.10;;;;;;;;;;5036829;28;20049;-75
2022/11/25 13:53:33;;;;;;;14.10;1.95;;;;;;;;;;5036002;28;20056;-75
2022/11/25 13:56:19;;;;;;;14.23;2.03;;;;;;;;;;5038610;28;20904;-76
2022/11/25 13:59:05;;;;;;;15.93;2.30;;;;;;;;;;5044884;28;20128;-75
2022/11/25 14:01:32;;;;;;;12.88;2.10;;;;;;;;;;5038220;28;20487;-75
2022/11/25 14:04:06;;;;;;;16.45;2.20;;;;;;;;;;5041713;28;20136;-75
2022/11/25 14:06:40;;;;;;;9.10;2.00;;;;;;;;;;5041561;28;20049;-75
2022/11/25 14:09:17;;;;;;;9.85;1.80;;;;;;;;;;5040437;28;20049;-75
2022/11/25 14:11:58;;;;;;;12.63;2.13;;;;;;;;;;5046020;28;20109;-75
2022/11/25 14:14:50;;;;;;;13.50;2.42;;;;;;;;;;5039804;28;20132;-75
2022/11/25 14:17:36;;;;;;;22.35;3.63;;;;;;;;;;5040894;28;20057;-75
2022/11/25 14:20:06;;;;;;;9.93;1.65;;;;;;;;;;5039861;28;20049;-76
2022/11/25 14:22:52;;;;;;;13.25;2.72;;;;;;;;;;5035788;28;20064;-75
2022/11/25 14:25:25;;;;;;;14.02;2.45;;;;;;;;;;5038397;28;20077;-75
2022/11/25 14:27:59;;;;;;;12.27;2.55;;;;;;;;;;5044475;28;20057;-75
2022/11/25 14:30:31;;;;;;;11.80;2.33;;;;;;;;;;5036335;28;20054;-75
2022/11/25 14:33:03;;;;;;;17.15;2.58;;;;;;;;;;5037671;28;20060;-75
2022/11/25 14:35:39;;;;;;;18.50;2.33;;;;;;;;;;5041912;28;20141;-75
2022/11/25 14:38:15;;;;;;;14.20;2.97;;;;;;;;;;5041432;28;20057;-75
2022/11/25 14:40:54;;;;;;;12.73;2.17;;;;;;;;;;5044762;28;20050;-75
2022/11/25 14:43:26;;;;;;;22.10;2.53;;;;;;;;;;5042533;28;20123;-76
2022/11/25 14:46:09;;;;;;;15.55;2.28;;;;;;;;;;5024782;28;20080;-76
2022/11/25 14:48:37;;;;;;;13.82;2.30;;;;;;;;;;5043568;28;20050;-75
2022/11/25 14:51:06;;;;;;;11.35;2.63;;;;;;;;;;5044269;28;20053;-75
2022/11/25 14:53:38;;;;;;;16.42;2.95;;;;;;;;;;5024288;28;20527;-76
2022/11/25 14:56:14;;;;;;;13.10;2.25;;;;;;;;;;5041367;28;20054;-76
2022/11/25 14:58:45;;;;;;;18.65;2.40;;;;;;;;;;5037140;28;20052;-76
2022/11/25 15:01:19;;;;;;;18.65;2.67;;;;;;;;;;5044473;28;20102;-76